Beaver County Airport
KBVI : now visible

Airfield :











YOU CAN JOIN US ON...

 
LOGIN :

Register | Disclaimer

   EN    FR    IT 

 









Legend :    VFR   Marginal VFR   IFR   Intensive IFR   Very Intensive IFR
Visi :
Ceiling :
>= 8 km
>= 3000ft
5 to 8 km
1000 to 3000 ft
1500m to 5 km
500 to 1000 ft
800 to 1500m
200 to 500 ft
< 800m
< 200 ft
Symbols :   Thunderstorms  Fog  Heavy snow  Heavy precipitations  Wind > 20 kt






- Airport Elevation : 1253 ft


KBVI - Beaver County

CURRENT METAR :
  • 200556Z AUTO 27006KT 7SM -SN OVC018 M09/M11 A3026 RMK AO2 T10881110

EXPIRED METARs :
  • 200536Z AUTO 27006KT 4SM -SN SCT014 OVC020 M09/M11 A3026 RMK AO2 T10901110
  • 200535Z AUTO 27006KT 4SM -SN SCT014 OVC020 M09/M11 A3026 RMK AO2 T10901110
  • 200515Z AUTO 28007KT 2 1/2SM -SN SCT015 OVC020 M09/M11 A3026 RMK AO2 T10881110
  • 200455Z AUTO 29009KT 2SM -SN SCT015 OVC020 M09/M11 A3026 RMK AO2 T10871109
  • 200435Z AUTO 29008G16KT 3SM -SN SCT014 BKN019 OVC027 M08/M11 A3025 RMK AO2 T10851110
  • 200416Z AUTO 27008KT 4SM -SN BKN014 BKN022 OVC050 M09/M11 A3025 RMK AO2 T10861111
  • 200355Z AUTO 28008KT 4SM -SN BKN016 BKN031 OVC048 M09/M11 A3024 RMK AO2 T10871112
  • 200335Z AUTO 27007KT 4SM -SN SCT016 BKN022 OVC048 M09/M11 A3023 RMK AO2 T10871114
  • 200316Z AUTO 27009G14KT 3SM -SN BKN016 BKN021 OVC038 M09/M12 A3023 RMK AO2 T10871116
  • 200315Z AUTO 27009G14KT 3SM -SN BKN016 BKN021 OVC038 M09/M12 A3023 RMK AO2 T10871116
  • 200256Z AUTO 27008G15KT 7SM -SN OVC016 M09/M11 A3023 RMK AO2 T10871115

TAF KBVI
Valid from the 20 at 06:00 until the 21 at 06:00 UTC


200522Z 2006/2106 29008KT P6SM -SHSN SCT015 BKN025
FM201000 33007KT P6SM BKN025
FM201300 32006KT P6SM BKN035



MET'MAP, your aeronautical weather chart ! - Copyright ORBIFLY December 2007 - Disclaimer

ORBIFLY MET'MAP TEAM :

Programming & Development : Alexandra Zaïnal
Concept & original design : Baudouin d'Aumeries
Assistance for programming : Marc-Olivier Méhu
Technical & hardware support : Manuel Goepfert

Contact : metmap@orbifly.com




SOURCES & CREDITS :

   NOAA       Earth
Advisory